sensor_id;sensor_type;location;lat;lon;timestamp;pressure;altitude;pressure_sealevel;temperature;humidity
58662;BME280;44432;49.786;22.760;2023-08-06T00:02:26;97975.18;;;20.69;80.52
58662;BME280;44432;49.786;22.760;2023-08-06T00:04:57;97973.54;;;20.67;80.81
58662;BME280;44432;49.786;22.760;2023-08-06T00:07:27;97973.82;;;20.65;80.93
58662;BME280;44432;49.786;22.760;2023-08-06T00:09:58;97969.33;;;20.62;81.08
58662;BME280;44432;49.786;22.760;2023-08-06T00:12:29;97971.39;;;20.59;81.18
58662;BME280;44432;49.786;22.760;2023-08-06T00:15:00;97974.14;;;20.59;81.43
58662;BME280;44432;49.786;22.760;2023-08-06T00:17:30;97969.94;;;20.57;81.64
58662;BME280;44432;49.786;22.760;2023-08-06T00:20:01;97970.63;;;20.57;81.84
58662;BME280;44432;49.786;22.760;2023-08-06T00:22:35;97967.27;;;20.56;81.87
58662;BME280;44432;49.786;22.760;2023-08-06T00:25:07;97964.13;;;20.58;82.06
58662;BME280;44432;49.786;22.760;2023-08-06T00:27:38;97951.98;;;20.56;82.03
58662;BME280;44432;49.786;22.760;2023-08-06T00:30:10;97947.79;;;20.55;82.32
58662;BME280;44432;49.786;22.760;2023-08-06T00:32:41;97944.91;;;20.52;82.29
58662;BME280;44432;49.786;22.760;2023-08-06T00:35:12;97940.06;;;20.51;82.44
58662;BME280;44432;49.786;22.760;2023-08-06T00:37:43;97934.05;;;20.47;82.56
58662;BME280;44432;49.786;22.760;2023-08-06T00:40:14;97939.34;;;20.44;82.90
58662;BME280;44432;49.786;22.760;2023-08-06T00:42:44;97941.86;;;20.42;82.93
58662;BME280;44432;49.786;22.760;2023-08-06T00:45:15;97940.02;;;20.39;82.86
58662;BME280;44432;49.786;22.760;2023-08-06T00:47:46;97944.86;;;20.35;83.09
58662;BME280;44432;49.786;22.760;2023-08-06T00:50:17;97944.46;;;20.32;82.98
58662;BME280;44432;49.786;22.760;2023-08-06T00:52:50;97940.40;;;20.27;83.30
58662;BME280;44432;49.786;22.760;2023-08-06T00:55:21;97941.17;;;20.24;83.41
58662;BME280;44432;49.786;22.760;2023-08-06T00:57:52;97933.12;;;20.20;83.63
58662;BME280;44432;49.786;22.760;2023-08-06T01:00:25;97930.73;;;20.17;83.72
58662;BME280;44432;49.786;22.760;2023-08-06T01:02:56;97928.36;;;20.14;83.80
58662;BME280;44432;49.786;22.760;2023-08-06T01:05:27;97925.92;;;20.07;83.91
58662;BME280;44432;49.786;22.760;2023-08-06T01:08:09;97929.58;;;20.00;84.10
58662;BME280;44432;49.786;22.760;2023-08-06T01:10:51;97928.15;;;19.95;84.33
58662;BME280;44432;49.786;22.760;2023-08-06T01:13:31;97924.18;;;19.90;84.54
58662;BME280;44432;49.786;22.760;2023-08-06T01:16:04;97927.79;;;19.87;84.78
58662;BME280;44432;49.786;22.760;2023-08-06T01:18:36;97926.28;;;19.84;84.84
58662;BME280;44432;49.786;22.760;2023-08-06T01:21:08;97922.70;;;19.81;85.07
58662;BME280;44432;49.786;22.760;2023-08-06T01:23:39;97915.06;;;19.78;85.20
58662;BME280;44432;49.786;22.760;2023-08-06T01:26:14;97916.61;;;19.75;85.28
58662;BME280;44432;49.786;22.760;2023-08-06T01:28:51;97910.17;;;19.69;85.13
58662;BME280;44432;49.786;22.760;2023-08-06T01:31:30;97908.05;;;19.62;85.19
58662;BME280;44432;49.786;22.760;2023-08-06T01:34:02;97910.66;;;19.55;85.37
58662;BME280;44432;49.786;22.760;2023-08-06T01:36:33;97908.45;;;19.50;85.62
58662;BME280;44432;49.786;22.760;2023-08-06T01:39:05;97909.26;;;19.45;85.74
58662;BME280;44432;49.786;22.760;2023-08-06T01:41:36;97901.98;;;19.41;85.93
58662;BME280;44432;49.786;22.760;2023-08-06T01:44:07;97900.29;;;19.35;86.12
58662;BME280;44432;49.786;22.760;2023-08-06T01:46:37;97891.84;;;19.30;86.41
58662;BME280;44432;49.786;22.760;2023-08-06T01:49:08;97895.19;;;19.26;86.56
58662;BME280;44432;49.786;22.760;2023-08-06T01:51:39;97893.58;;;19.24;86.77
58662;BME280;44432;49.786;22.760;2023-08-06T01:54:09;97889.16;;;19.21;86.91
58662;BME280;44432;49.786;22.760;2023-08-06T01:56:40;97891.04;;;19.16;87.06
58662;BME280;44432;49.786;22.760;2023-08-06T01:59:11;97889.04;;;19.12;87.18
58662;BME280;44432;49.786;22.760;2023-08-06T02:01:43;97890.84;;;19.08;87.34
58662;BME280;44432;49.786;22.760;2023-08-06T02:04:13;97885.98;;;19.05;87.61
58662;BME280;44432;49.786;22.760;2023-08-06T02:06:44;97882.45;;;19.02;87.82
58662;BME280;44432;49.786;22.760;2023-08-06T02:09:14;97882.48;;;19.02;87.92
58662;BME280;44432;49.786;22.760;2023-08-06T02:11:45;97884.85;;;19.01;87.98
58662;BME280;44432;49.786;22.760;2023-08-06T02:14:16;97887.46;;;19.01;88.20
58662;BME280;44432;49.786;22.760;2023-08-06T02:16:46;97891.63;;;19.01;88.17
58662;BME280;44432;49.786;22.760;2023-08-06T02:19:17;97889.20;;;19.02;88.32
58662;BME280;44432;49.786;22.760;2023-08-06T02:21:47;97888.89;;;19.01;88.23
58662;BME280;44432;49.786;22.760;2023-08-06T02:24:18;97883.62;;;19.00;88.22
58662;BME280;44432;49.786;22.760;2023-08-06T02:26:49;97882.16;;;18.99;88.17
58662;BME280;44432;49.786;22.760;2023-08-06T02:29:20;97884.58;;;18.95;88.08
58662;BME280;44432;49.786;22.760;2023-08-06T02:31:51;97879.23;;;18.91;88.04
58662;BME280;44432;49.786;22.760;2023-08-06T02:34:21;97876.14;;;18.87;88.17
58662;BME280;44432;49.786;22.760;2023-08-06T02:36:52;97879.48;;;18.84;88.31
58662;BME280;44432;49.786;22.760;2023-08-06T02:39:23;97882.59;;;18.81;88.26
58662;BME280;44432;49.786;22.760;2023-08-06T02:41:53;97881.48;;;18.78;88.36
58662;BME280;44432;49.786;22.760;2023-08-06T02:44:26;97879.56;;;18.75;88.52
58662;BME280;44432;49.786;22.760;2023-08-06T02:46:57;97878.30;;;18.72;88.74
58662;BME280;44432;49.786;22.760;2023-08-06T02:49:27;97875.20;;;18.70;88.79
58662;BME280;44432;49.786;22.760;2023-08-06T02:51:58;97873.07;;;18.67;88.89
58662;BME280;44432;49.786;22.760;2023-08-06T02:54:28;97873.75;;;18.65;88.98
58662;BME280;44432;49.786;22.760;2023-08-06T02:56:59;97871.85;;;18.64;89.03
58662;BME280;44432;49.786;22.760;2023-08-06T02:59:30;97874.73;;;18.61;89.04
58662;BME280;44432;49.786;22.760;2023-08-06T03:02:00;97873.48;;;18.58;89.19
58662;BME280;44432;49.786;22.760;2023-08-06T03:04:31;97866.73;;;18.56;89.36
58662;BME280;44432;49.786;22.760;2023-08-06T03:07:01;97858.27;;;18.55;89.39
58662;BME280;44432;49.786;22.760;2023-08-06T03:09:32;97857.55;;;18.50;89.30
58662;BME280;44432;49.786;22.760;2023-08-06T03:12:03;97855.32;;;18.47;89.70
58662;BME280;44432;49.786;22.760;2023-08-06T03:14:33;97859.89;;;18.49;90.10
58662;BME280;44432;49.786;22.760;2023-08-06T03:17:05;97852.23;;;18.50;90.14
58662;BME280;44432;49.786;22.760;2023-08-06T03:19:35;97842.46;;;18.51;90.20
58662;BME280;44432;49.786;22.760;2023-08-06T03:22:06;97847.36;;;18.53;90.16
58662;BME280;44432;49.786;22.760;2023-08-06T03:24:37;97844.58;;;18.52;90.11
58662;BME280;44432;49.786;22.760;2023-08-06T03:27:08;97839.95;;;18.51;90.16
58662;BME280;44432;49.786;22.760;2023-08-06T03:29:38;97842.15;;;18.51;90.19
58662;BME280;44432;49.786;22.760;2023-08-06T03:32:09;97838.67;;;18.51;90.20
58662;BME280;44432;49.786;22.760;2023-08-06T03:34:40;97836.05;;;18.51;90.27
58662;BME280;44432;49.786;22.760;2023-08-06T03:37:11;97830.26;;;18.52;90.41
58662;BME280;44432;49.786;22.760;2023-08-06T03:39:41;97828.04;;;18.54;90.60
58662;BME280;44432;49.786;22.760;2023-08-06T03:42:12;97819.83;;;18.57;90.75
58662;BME280;44432;49.786;22.760;2023-08-06T03:44:42;97814.82;;;18.60;90.90
58662;BME280;44432;49.786;22.760;2023-08-06T03:47:13;97815.21;;;18.68;90.84
58662;BME280;44432;49.786;22.760;2023-08-06T03:49:43;97809.67;;;18.73;90.89
58662;BME280;44432;49.786;22.760;2023-08-06T03:52:14;97806.56;;;18.78;90.86
58662;BME280;44432;49.786;22.760;2023-08-06T03:54:45;97804.16;;;18.80;90.62
58662;BME280;44432;49.786;22.760;2023-08-06T03:57:15;97805.75;;;18.85;90.65
58662;BME280;44432;49.786;22.760;2023-08-06T03:59:46;97796.06;;;18.93;90.72
58662;BME280;44432;49.786;22.760;2023-08-06T04:02:17;97791.10;;;18.99;90.67
58662;BME280;44432;49.786;22.760;2023-08-06T04:04:47;97787.80;;;19.08;90.77
58662;BME280;44432;49.786;22.760;2023-08-06T04:07:18;97783.56;;;19.15;90.53
58662;BME280;44432;49.786;22.760;2023-08-06T04:09:56;97781.65;;;19.23;90.45
58662;BME280;44432;49.786;22.760;2023-08-06T04:12:27;97780.82;;;19.31;90.27
58662;BME280;44432;49.786;22.760;2023-08-06T04:14:58;97780.07;;;19.38;90.07
58662;BME280;44432;49.786;22.760;2023-08-06T04:17:29;97780.14;;;19.43;89.96
58662;BME280;44432;49.786;22.760;2023-08-06T04:20:00;97773.30;;;19.52;89.97
58662;BME280;44432;49.786;22.760;2023-08-06T04:22:31;97770.27;;;19.60;89.65
58662;BME280;44432;49.786;22.760;2023-08-06T04:25:02;97766.65;;;19.67;89.56
58662;BME280;44432;49.786;22.760;2023-08-06T04:27:33;97760.81;;;19.73;89.23
58662;BME280;44432;49.786;22.760;2023-08-06T04:30:04;97759.42;;;19.80;89.14
58662;BME280;44432;49.786;22.760;2023-08-06T04:32:35;97757.02;;;19.91;89.16
58662;BME280;44432;49.786;22.760;2023-08-06T04:35:07;97757.79;;;20.04;89.09
58662;BME280;44432;49.786;22.760;2023-08-06T04:37:38;97757.48;;;20.17;88.83
58662;BME280;44432;49.786;22.760;2023-08-06T04:40:10;97759.48;;;20.29;88.30
58662;BME280;44432;49.786;22.760;2023-08-06T04:42:40;97749.19;;;20.39;87.90
58662;BME280;44432;49.786;22.760;2023-08-06T04:45:11;97748.58;;;20.48;87.46
58662;BME280;44432;49.786;22.760;2023-08-06T04:47:42;97746.70;;;20.55;87.18
58662;BME280;44432;49.786;22.760;2023-08-06T04:50:13;97743.45;;;20.61;87.08
58662;BME280;44432;49.786;22.760;2023-08-06T04:52:43;97733.95;;;20.68;86.57
58662;BME280;44432;49.786;22.760;2023-08-06T04:55:14;97723.10;;;20.71;86.04
58662;BME280;44432;49.786;22.760;2023-08-06T04:57:46;97716.15;;;20.75;85.81
58662;BME280;44432;49.786;22.760;2023-08-06T05:00:17;97714.41;;;20.79;85.55
58662;BME280;44432;49.786;22.760;2023-08-06T05:02:48;97713.98;;;20.87;85.39
58662;BME280;44432;49.786;22.760;2023-08-06T05:05:18;97710.55;;;20.98;85.13
58662;BME280;44432;49.786;22.760;2023-08-06T05:07:50;97710.41;;;21.07;84.65
58662;BME280;44432;49.786;22.760;2023-08-06T05:10:21;97709.39;;;21.12;84.06
58662;BME280;44432;49.786;22.760;2023-08-06T05:12:52;97705.70;;;21.10;83.64
58662;BME280;44432;49.786;22.760;2023-08-06T05:15:22;97701.54;;;21.10;83.66
58662;BME280;44432;49.786;22.760;2023-08-06T05:17:54;97699.32;;;21.10;83.57
58662;BME280;44432;49.786;22.760;2023-08-06T05:20:25;97695.61;;;21.13;83.47
58662;BME280;44432;49.786;22.760;2023-08-06T05:22:56;97694.23;;;21.16;83.18
58662;BME280;44432;49.786;22.760;2023-08-06T05:25:26;97694.58;;;21.21;83.48
58662;BME280;44432;49.786;22.760;2023-08-06T05:27:57;97698.23;;;21.31;83.37
58662;BME280;44432;49.786;22.760;2023-08-06T05:30:27;97697.40;;;21.41;83.34
58662;BME280;44432;49.786;22.760;2023-08-06T05:32:58;97695.44;;;21.50;83.00
58662;BME280;44432;49.786;22.760;2023-08-06T05:35:29;97697.25;;;21.64;82.80
58662;BME280;44432;49.786;22.760;2023-08-06T05:38:00;97698.88;;;21.75;82.45
58662;BME280;44432;49.786;22.760;2023-08-06T05:40:30;97701.00;;;21.87;82.12
58662;BME280;44432;49.786;22.760;2023-08-06T05:43:03;97701.95;;;22.01;81.68
58662;BME280;44432;49.786;22.760;2023-08-06T05:45:34;97700.05;;;22.13;81.15
58662;BME280;44432;49.786;22.760;2023-08-06T05:48:05;97697.04;;;22.25;80.75
58662;BME280;44432;49.786;22.760;2023-08-06T05:50:35;97700.95;;;22.39;80.32
58662;BME280;44432;49.786;22.760;2023-08-06T05:53:06;97695.39;;;22.51;79.82
58662;BME280;44432;49.786;22.760;2023-08-06T05:55:39;97694.65;;;22.60;79.13
58662;BME280;44432;49.786;22.760;2023-08-06T05:58:09;97692.42;;;22.69;78.95
58662;BME280;44432;49.786;22.760;2023-08-06T06:00:40;97688.92;;;22.82;78.96
58662;BME280;44432;49.786;22.760;2023-08-06T06:03:11;97688.81;;;22.97;78.73
58662;BME280;44432;49.786;22.760;2023-08-06T06:05:42;97683.56;;;23.14;78.41
58662;BME280;44432;49.786;22.760;2023-08-06T06:08:13;97686.65;;;23.31;77.92
58662;BME280;44432;49.786;22.760;2023-08-06T06:10:43;97682.70;;;23.41;77.52
58662;BME280;44432;49.786;22.760;2023-08-06T06:13:14;97676.71;;;23.49;76.88
58662;BME280;44432;49.786;22.760;2023-08-06T06:15:45;97672.15;;;23.53;76.47
58662;BME280;44432;49.786;22.760;2023-08-06T06:18:16;97666.62;;;23.58;76.27
58662;BME280;44432;49.786;22.760;2023-08-06T06:20:47;97666.71;;;23.63;76.04
58662;BME280;44432;49.786;22.760;2023-08-06T06:23:17;97664.00;;;23.69;75.96
58662;BME280;44432;49.786;22.760;2023-08-06T06:25:50;97667.23;;;23.74;75.70
58662;BME280;44432;49.786;22.760;2023-08-06T06:28:19;97665.09;;;23.80;75.83
58662;BME280;44432;49.786;22.760;2023-08-06T06:30:50;97661.49;;;23.85;75.45
58662;BME280;44432;49.786;22.760;2023-08-06T06:33:21;97664.24;;;23.96;75.25
58662;BME280;44432;49.786;22.760;2023-08-06T06:35:52;97666.81;;;24.04;74.99
58662;BME280;44432;49.786;22.760;2023-08-06T06:38:23;97666.66;;;24.12;74.84
58662;BME280;44432;49.786;22.760;2023-08-06T06:40:56;97664.41;;;24.19;74.40
58662;BME280;44432;49.786;22.760;2023-08-06T06:43:27;97664.98;;;24.25;74.21
58662;BME280;44432;49.786;22.760;2023-08-06T06:45:58;97660.03;;;24.29;73.95
58662;BME280;44432;49.786;22.760;2023-08-06T06:48:31;97660.13;;;24.33;73.94
58662;BME280;44432;49.786;22.760;2023-08-06T06:51:02;97655.30;;;24.39;73.61
58662;BME280;44432;49.786;22.760;2023-08-06T06:53:33;97654.23;;;24.48;73.33
58662;BME280;44432;49.786;22.760;2023-08-06T06:56:04;97653.80;;;24.57;73.29
58662;BME280;44432;49.786;22.760;2023-08-06T06:58:35;97653.71;;;24.67;73.23
58662;BME280;44432;49.786;22.760;2023-08-06T07:01:06;97656.86;;;24.78;72.73
58662;BME280;44432;49.786;22.760;2023-08-06T07:03:39;97658.71;;;24.87;72.28
58662;BME280;44432;49.786;22.760;2023-08-06T07:06:10;97655.48;;;24.93;71.89
58662;BME280;44432;49.786;22.760;2023-08-06T07:08:41;97659.77;;;24.97;71.18
58662;BME280;44432;49.786;22.760;2023-08-06T07:11:12;97662.30;;;24.97;71.01
58662;BME280;44432;49.786;22.760;2023-08-06T07:13:43;97657.09;;;24.96;70.73
58662;BME280;44432;49.786;22.760;2023-08-06T07:16:13;97658.52;;;25.00;70.46
58662;BME280;44432;49.786;22.760;2023-08-06T07:18:44;97659.38;;;25.09;70.55
58662;BME280;44432;49.786;22.760;2023-08-06T07:21:14;97659.10;;;25.20;70.16
58662;BME280;44432;49.786;22.760;2023-08-06T07:23:45;97654.28;;;25.28;69.92
58662;BME280;44432;49.786;22.760;2023-08-06T07:26:19;97658.27;;;25.35;69.46
58662;BME280;44432;49.786;22.760;2023-08-06T07:28:49;97654.98;;;25.46;69.28
58662;BME280;44432;49.786;22.760;2023-08-06T07:31:20;97652.85;;;25.58;69.35
58662;BME280;44432;49.786;22.760;2023-08-06T07:33:50;97656.15;;;25.68;68.87
58662;BME280;44432;49.786;22.760;2023-08-06T07:36:21;97652.11;;;25.74;68.22
58662;BME280;44432;49.786;22.760;2023-08-06T07:38:52;97655.02;;;25.83;67.96
58662;BME280;44432;49.786;22.760;2023-08-06T07:41:25;97652.27;;;25.89;67.50
58662;BME280;44432;49.786;22.760;2023-08-06T07:43:55;97648.07;;;25.93;67.61
58662;BME280;44432;49.786;22.760;2023-08-06T07:46:26;97646.73;;;26.00;67.43
58662;BME280;44432;49.786;22.760;2023-08-06T07:48:57;97644.42;;;26.04;66.85
58662;BME280;44432;49.786;22.760;2023-08-06T07:51:27;97646.96;;;26.08;66.36
58662;BME280;44432;49.786;22.760;2023-08-06T07:53:58;97638.61;;;26.15;66.01
58662;BME280;44432;49.786;22.760;2023-08-06T07:56:29;97638.98;;;26.21;65.85
58662;BME280;44432;49.786;22.760;2023-08-06T07:58:59;97633.90;;;26.29;65.71
58662;BME280;44432;49.786;22.760;2023-08-06T08:01:30;97630.21;;;26.37;65.65
58662;BME280;44432;49.786;22.760;2023-08-06T08:04:01;97626.49;;;26.45;65.63
58662;BME280;44432;49.786;22.760;2023-08-06T08:06:32;97630.96;;;26.52;65.18
58662;BME280;44432;49.786;22.760;2023-08-06T08:09:03;97626.27;;;26.56;64.83
58662;BME280;44432;49.786;22.760;2023-08-06T08:11:34;97618.86;;;26.61;64.73
58662;BME280;44432;49.786;22.760;2023-08-06T08:14:05;97607.44;;;26.71;64.25
58662;BME280;44432;49.786;22.760;2023-08-06T08:16:35;97600.91;;;26.82;64.00
58662;BME280;44432;49.786;22.760;2023-08-06T08:19:06;97598.55;;;26.93;63.59
58662;BME280;44432;49.786;22.760;2023-08-06T08:21:37;97593.30;;;27.02;63.54
58662;BME280;44432;49.786;22.760;2023-08-06T08:24:07;97598.83;;;27.14;62.81
58662;BME280;44432;49.786;22.760;2023-08-06T08:26:39;97598.38;;;27.20;62.60
58662;BME280;44432;49.786;22.760;2023-08-06T08:29:09;97592.55;;;27.28;62.30
58662;BME280;44432;49.786;22.760;2023-08-06T08:31:40;97591.30;;;27.37;62.06
58662;BME280;44432;49.786;22.760;2023-08-06T08:34:11;97591.67;;;27.46;61.64
58662;BME280;44432;49.786;22.760;2023-08-06T08:36:42;97593.17;;;27.57;61.58
58662;BME280;44432;49.786;22.760;2023-08-06T08:39:12;97593.77;;;27.70;61.18
58662;BME280;44432;49.786;22.760;2023-08-06T08:41:43;97592.58;;;27.79;60.64
58662;BME280;44432;49.786;22.760;2023-08-06T08:44:17;97579.70;;;27.89;60.45
58662;BME280;44432;49.786;22.760;2023-08-06T08:46:49;97571.86;;;28.00;59.77
58662;BME280;44432;49.786;22.760;2023-08-06T08:49:21;97570.37;;;28.14;59.14
58662;BME280;44432;49.786;22.760;2023-08-06T08:51:54;97570.25;;;28.27;58.83
58662;BME280;44432;49.786;22.760;2023-08-06T08:54:25;97570.30;;;28.38;57.82
58662;BME280;44432;49.786;22.760;2023-08-06T08:56:56;97575.89;;;28.46;57.40
58662;BME280;44432;49.786;22.760;2023-08-06T08:59:27;97575.43;;;28.54;57.30
58662;BME280;44432;49.786;22.760;2023-08-06T09:01:58;97574.71;;;28.59;56.97
58662;BME280;44432;49.786;22.760;2023-08-06T09:04:31;97567.27;;;28.66;56.82
58662;BME280;44432;49.786;22.760;2023-08-06T09:07:02;97568.54;;;28.78;56.20
58662;BME280;44432;49.786;22.760;2023-08-06T09:09:33;97561.58;;;28.87;56.34
58662;BME280;44432;49.786;22.760;2023-08-06T09:12:09;97558.37;;;29.00;56.19
58662;BME280;44432;49.786;22.760;2023-08-06T09:14:42;97568.39;;;29.13;56.10
58662;BME280;44432;49.786;22.760;2023-08-06T09:17:13;97563.64;;;29.22;55.42
58662;BME280;44432;49.786;22.760;2023-08-06T09:19:44;97562.29;;;29.37;54.98
58662;BME280;44432;49.786;22.760;2023-08-06T09:22:16;97561.42;;;29.57;54.78
58662;BME280;44432;49.786;22.760;2023-08-06T09:24:47;97559.13;;;29.75;54.17
58662;BME280;44432;49.786;22.760;2023-08-06T09:27:18;97550.97;;;29.91;53.76
58662;BME280;44432;49.786;22.760;2023-08-06T09:29:48;97551.77;;;30.07;53.20
58662;BME280;44432;49.786;22.760;2023-08-06T09:32:19;97544.27;;;30.23;52.28
58662;BME280;44432;49.786;22.760;2023-08-06T09:34:56;97539.30;;;30.32;51.07
58662;BME280;44432;49.786;22.760;2023-08-06T09:37:36;97543.45;;;30.42;50.78
58662;BME280;44432;49.786;22.760;2023-08-06T09:40:25;97549.32;;;30.53;49.60
58662;BME280;44432;49.786;22.760;2023-08-06T09:42:57;97549.38;;;30.70;49.14
58662;BME280;44432;49.786;22.760;2023-08-06T09:45:31;97548.54;;;30.83;48.50
58662;BME280;44432;49.786;22.760;2023-08-06T09:48:04;97546.52;;;30.91;48.01
58662;BME280;44432;49.786;22.760;2023-08-06T09:50:36;97539.52;;;31.01;47.80
58662;BME280;44432;49.786;22.760;2023-08-06T09:53:08;97541.62;;;31.10;47.03
58662;BME280;44432;49.786;22.760;2023-08-06T09:55:39;97545.14;;;31.17;46.86
58662;BME280;44432;49.786;22.760;2023-08-06T09:58:10;97548.77;;;31.25;46.74
58662;BME280;44432;49.786;22.760;2023-08-06T10:00:41;97550.24;;;31.35;46.04
58662;BME280;44432;49.786;22.760;2023-08-06T10:03:11;97556.40;;;31.34;45.62
58662;BME280;44432;49.786;22.760;2023-08-06T10:05:45;97562.79;;;31.32;45.74
58662;BME280;44432;49.786;22.760;2023-08-06T10:08:15;97565.92;;;31.17;44.97
58662;BME280;44432;49.786;22.760;2023-08-06T10:10:47;97554.85;;;30.96;45.21
58662;BME280;44432;49.786;22.760;2023-08-06T10:13:19;97555.77;;;30.83;45.54
58662;BME280;44432;49.786;22.760;2023-08-06T10:15:52;97552.82;;;30.83;45.75
58662;BME280;44432;49.786;22.760;2023-08-06T10:18:23;97542.23;;;30.88;45.94
58662;BME280;44432;49.786;22.760;2023-08-06T10:20:55;97545.59;;;30.97;45.75
58662;BME280;44432;49.786;22.760;2023-08-06T10:23:35;97541.70;;;31.02;45.60
58662;BME280;44432;49.786;22.760;2023-08-06T10:26:08;97534.06;;;30.99;45.25
58662;BME280;44432;49.786;22.760;2023-08-06T10:28:39;97531.02;;;30.82;45.10
58662;BME280;44432;49.786;22.760;2023-08-06T10:31:10;97517.85;;;30.69;45.79
58662;BME280;44432;49.786;22.760;2023-08-06T10:33:44;97517.77;;;30.61;45.55
58662;BME280;44432;49.786;22.760;2023-08-06T10:36:15;97510.42;;;30.56;46.09
58662;BME280;44432;49.786;22.760;2023-08-06T10:38:47;97500.61;;;30.55;45.99
58662;BME280;44432;49.786;22.760;2023-08-06T10:41:21;97512.67;;;30.55;46.44
58662;BME280;44432;49.786;22.760;2023-08-06T10:43:52;97506.33;;;30.64;46.59
58662;BME280;44432;49.786;22.760;2023-08-06T10:46:28;97518.33;;;30.77;46.34
58662;BME280;44432;49.786;22.760;2023-08-06T10:48:59;97518.17;;;30.85;45.73
58662;BME280;44432;49.786;22.760;2023-08-06T10:51:30;97516.15;;;30.82;45.11
58662;BME280;44432;49.786;22.760;2023-08-06T10:54:01;97512.33;;;30.72;44.75
58662;BME280;44432;49.786;22.760;2023-08-06T10:56:40;97511.23;;;30.65;44.83
58662;BME280;44432;49.786;22.760;2023-08-06T10:59:14;97510.27;;;30.56;44.72
58662;BME280;44432;49.786;22.760;2023-08-06T11:01:45;97516.92;;;30.43;44.37
58662;BME280;44432;49.786;22.760;2023-08-06T11:04:16;97518.39;;;30.35;44.80
58662;BME280;44432;49.786;22.760;2023-08-06T11:06:53;97518.16;;;30.38;44.93
58662;BME280;44432;49.786;22.760;2023-08-06T11:09:24;97518.88;;;30.43;44.86
58662;BME280;44432;49.786;22.760;2023-08-06T11:11:55;97514.99;;;30.50;44.67
58662;BME280;44432;49.786;22.760;2023-08-06T11:14:26;97519.74;;;30.54;43.61
58662;BME280;44432;49.786;22.760;2023-08-06T11:16:57;97510.02;;;30.56;42.86
58662;BME280;44432;49.786;22.760;2023-08-06T11:19:28;97509.98;;;30.58;41.91
58662;BME280;44432;49.786;22.760;2023-08-06T11:21:59;97510.60;;;30.60;41.40
58662;BME280;44432;49.786;22.760;2023-08-06T11:24:29;97506.83;;;30.56;41.02
58662;BME280;44432;49.786;22.760;2023-08-06T11:27:00;97504.67;;;30.57;41.22
58662;BME280;44432;49.786;22.760;2023-08-06T11:29:31;97499.86;;;30.60;41.21
58662;BME280;44432;49.786;22.760;2023-08-06T11:32:07;97507.11;;;30.62;41.23
58662;BME280;44432;49.786;22.760;2023-08-06T11:34:39;97516.75;;;30.60;40.95
58662;BME280;44432;49.786;22.760;2023-08-06T11:37:09;97509.79;;;30.52;40.24
58662;BME280;44432;49.786;22.760;2023-08-06T11:39:46;97509.77;;;30.39;39.57
58662;BME280;44432;49.786;22.760;2023-08-06T11:42:18;97515.57;;;30.27;40.09
58662;BME280;44432;49.786;22.760;2023-08-06T11:44:49;97522.48;;;30.20;40.03
58662;BME280;44432;49.786;22.760;2023-08-06T11:47:19;97517.56;;;30.18;40.16
58662;BME280;44432;49.786;22.760;2023-08-06T11:49:50;97515.93;;;30.20;40.16
58662;BME280;44432;49.786;22.760;2023-08-06T11:52:23;97514.69;;;30.19;38.83
58662;BME280;44432;49.786;22.760;2023-08-06T11:55:04;97510.18;;;30.21;39.42
58662;BME280;44432;49.786;22.760;2023-08-06T11:57:38;97514.33;;;30.31;39.39
58662;BME280;44432;49.786;22.760;2023-08-06T12:00:12;97522.42;;;30.35;39.51
58662;BME280;44432;49.786;22.760;2023-08-06T12:02:44;97520.41;;;30.39;39.54
58662;BME280;44432;49.786;22.760;2023-08-06T12:05:16;97524.54;;;30.37;39.17
58662;BME280;44432;49.786;22.760;2023-08-06T12:07:48;97517.05;;;30.31;38.90
58662;BME280;44432;49.786;22.760;2023-08-06T12:10:19;97513.47;;;30.28;38.95
58662;BME280;44432;49.786;22.760;2023-08-06T12:12:50;97511.52;;;30.28;38.89
58662;BME280;44432;49.786;22.760;2023-08-06T12:15:21;97515.02;;;30.29;39.29
58662;BME280;44432;49.786;22.760;2023-08-06T12:17:52;97521.09;;;30.29;39.25
58662;BME280;44432;49.786;22.760;2023-08-06T12:20:23;97530.73;;;30.30;38.99
58662;BME280;44432;49.786;22.760;2023-08-06T12:22:54;97522.34;;;30.32;38.95
58662;BME280;44432;49.786;22.760;2023-08-06T12:25:24;97511.48;;;30.44;39.29
58662;BME280;44432;49.786;22.760;2023-08-06T12:27:55;97516.67;;;30.62;39.07
58662;BME280;44432;49.786;22.760;2023-08-06T12:30:26;97528.29;;;30.72;38.56
58662;BME280;44432;49.786;22.760;2023-08-06T12:32:56;97532.96;;;30.79;38.62
58662;BME280;44432;49.786;22.760;2023-08-06T12:35:27;97535.61;;;30.88;38.69
58662;BME280;44432;49.786;22.760;2023-08-06T12:37:58;97549.63;;;31.01;38.41
58662;BME280;44432;49.786;22.760;2023-08-06T12:40:28;97547.16;;;31.16;38.28
58662;BME280;44432;49.786;22.760;2023-08-06T12:42:59;97548.14;;;31.30;38.19
58662;BME280;44432;49.786;22.760;2023-08-06T12:45:30;97555.68;;;31.45;37.79
58662;BME280;44432;49.786;22.760;2023-08-06T12:48:00;97560.02;;;31.65;37.77
58662;BME280;44432;49.786;22.760;2023-08-06T12:53:02;97563.17;;;32.12;37.28
58662;BME280;44432;49.786;22.760;2023-08-06T12:55:33;97566.27;;;32.33;36.90
58662;BME280;44432;49.786;22.760;2023-08-06T12:58:03;97564.58;;;32.44;36.51
58662;BME280;44432;49.786;22.760;2023-08-06T13:00:34;97560.70;;;32.54;36.63
58662;BME280;44432;49.786;22.760;2023-08-06T13:03:05;97547.40;;;32.71;35.98
58662;BME280;44432;49.786;22.760;2023-08-06T13:05:35;97539.75;;;32.86;35.93
58662;BME280;44432;49.786;22.760;2023-08-06T13:08:07;97533.78;;;32.99;35.65
58662;BME280;44432;49.786;22.760;2023-08-06T13:10:37;97520.64;;;32.91;35.25
58662;BME280;44432;49.786;22.760;2023-08-06T13:13:08;97517.36;;;32.82;35.55
58662;BME280;44432;49.786;22.760;2023-08-06T13:15:39;97521.27;;;32.83;35.60